Time;durP1;ratioP1;P1;durP2;ratioP2;P2;SDS_P1;SDS_P2;PMS_P1;PMS_P2;Temp;Humidity;BMP_temperature;BMP_pressure;BME280_temperature;BME280_humidity;BME280_pressure;Samples;Min_cycle;Max_cycle;Signal;HPM_P1;HPM_P2
2022/09/04 00:01:04;;;;;;;3.00;1.50;;;14.60;99.90;;;;;;5071902;28;20429;-50
2022/09/04 00:03:39;;;;;;;2.03;1.40;;;14.90;99.90;;;;;;5072720;28;20444;-52
2022/09/04 00:06:13;;;;;;;2.63;1.20;;;15.10;99.90;;;;;;5072466;28;20513;-50
2022/09/04 00:08:51;;;;;;;4.33;1.40;;;15.40;99.90;;;;;;5072272;28;20504;-47
2022/09/04 00:11:30;;;;;;;4.07;1.57;;;15.40;99.90;;;;;;5072431;28;20428;-50
2022/09/04 00:14:02;;;;;;;1.47;1.10;;;15.50;99.90;;;;;;5072332;28;20504;-50
2022/09/04 00:16:35;;;;;;;2.57;1.20;;;15.50;99.90;;;;;;5072640;28;21018;-49
2022/09/04 00:19:12;;;;;;;1.95;1.42;;;15.50;99.90;;;;;;5070485;28;20466;-49
2022/09/04 00:21:45;;;;;;;2.77;1.60;;;15.50;99.90;;;;;;5072284;28;20212;-50
2022/09/04 00:24:16;;;;;;;2.23;1.40;;;15.50;99.90;;;;;;5071948;28;20953;-49
2022/09/04 00:26:53;;;;;;;1.90;1.40;;;15.40;99.90;;;;;;5072089;28;20547;-50
2022/09/04 00:29:29;;;;;;;2.93;1.47;;;15.40;99.90;;;;;;5071534;28;20443;-49
2022/09/04 00:32:02;;;;;;;4.40;1.30;;;15.50;99.90;;;;;;5072024;28;20452;-49
2022/09/04 00:34:44;;;;;;;1.60;1.50;;;15.70;99.90;;;;;;5071836;28;20530;-50
2022/09/04 00:37:16;;;;;;;3.00;1.40;;;15.60;99.90;;;;;;5070685;28;20472;-51
2022/09/04 00:39:48;;;;;;;1.70;1.30;;;15.60;99.90;;;;;;5071313;28;20456;-51
2022/09/04 00:42:28;;;;;;;2.30;1.30;;;15.50;99.90;;;;;;5071840;28;20459;-49
2022/09/04 00:45:12;;;;;;;1.83;1.23;;;15.40;99.90;;;;;;5071933;28;20467;-50
2022/09/04 00:48:03;;;;;;;1.50;1.07;;;15.50;99.90;;;;;;5072074;28;20226;-50
2022/09/04 00:50:48;;;;;;;2.20;1.37;;;15.10;99.90;;;;;;5070980;28;20433;-49
2022/09/04 00:53:58;;;;;;;2.70;1.30;;;15.30;99.90;;;;;;5071459;28;20469;-50
2022/09/04 00:56:59;;;;;;;1.83;1.40;;;15.30;99.90;;;;;;5062305;28;20869;-50
2022/09/04 00:59:46;;;;;;;4.30;1.30;;;15.30;99.90;;;;;;5027363;28;20448;-50
2022/09/04 01:02:25;;;;;;;1.60;1.30;;;15.30;99.90;;;;;;5071492;28;20441;-51
2022/09/04 01:04:58;;;;;;;1.97;1.57;;;15.00;99.90;;;;;;5071264;28;20933;-51
2022/09/04 01:07:44;;;;;;;2.60;1.07;;;15.00;99.90;;;;;;5071287;28;20429;-49
2022/09/04 01:10:34;;;;;;;1.40;1.00;;;14.70;99.90;;;;;;5070842;28;20489;-49
2022/09/04 01:13:10;;;;;;;1.80;0.93;;;14.90;99.90;;;;;;5071254;28;20464;-50
2022/09/04 01:15:43;;;;;;;1.60;1.10;;;15.10;99.90;;;;;;5071209;28;20452;-49
2022/09/04 01:18:18;;;;;;;2.33;1.10;;;15.00;99.90;;;;;;5070352;28;20510;-50
2022/09/04 01:21:05;;;;;;;2.87;1.87;;;15.00;99.90;;;;;;5070170;28;20464;-49
2022/09/04 01:23:48;;;;;;;1.23;0.70;;;15.00;99.90;;;;;;5070954;28;20518;-49
2022/09/04 01:26:25;;;;;;;1.67;1.00;;;15.00;99.90;;;;;;5071106;28;20464;-50
2022/09/04 01:29:09;;;;;;;2.53;1.00;;;15.00;99.90;;;;;;5070376;28;20459;-50
2022/09/04 01:31:43;;;;;;;1.87;1.13;;;14.90;99.90;;;;;;5070837;28;20432;-49
2022/09/04 01:34:40;;;;;;;1.33;0.83;;;14.90;99.90;;;;;;5070904;28;20472;-49
2022/09/04 01:37:25;;;;;;;1.42;1.00;;;14.80;99.90;;;;;;5064197;28;20755;-49
2022/09/04 01:40:03;;;;;;;2.70;1.00;;;14.60;99.90;;;;;;5069998;28;20204;-50
2022/09/04 01:42:40;;;;;;;1.90;1.10;;;14.70;99.90;;;;;;5070784;28;20440;-49
2022/09/04 01:45:08;;;;;;;2.10;1.20;;;14.50;99.90;;;;;;5070474;28;20461;-49
2022/09/04 01:47:43;;;;;;;2.10;1.08;;;14.50;99.90;;;;;;5070634;28;20443;-49
2022/09/04 01:50:15;;;;;;;2.57;1.17;;;14.60;99.90;;;;;;5069601;28;20210;-51
2022/09/04 01:52:51;;;;;;;1.93;1.20;;;14.70;99.90;;;;;;5070835;28;20449;-49
2022/09/04 01:55:26;;;;;;;1.60;0.93;;;14.60;99.90;;;;;;5070625;28;20468;-49
2022/09/04 01:58:08;;;;;;;3.47;1.07;;;14.80;99.90;;;;;;5070577;28;20497;-50
2022/09/04 02:00:44;;;;;;;2.10;0.85;;;14.80;99.90;;;;;;5069739;28;20497;-49
2022/09/04 02:03:21;;;;;;;1.50;0.90;;;14.70;99.90;;;;;;5070587;28;20210;-49
2022/09/04 02:06:00;;;;;;;2.00;0.97;;;14.70;99.90;;;;;;5070193;28;20459;-49
2022/09/04 02:08:42;;;;;;;5.40;1.70;;;14.60;99.90;;;;;;5070355;28;20445;-49
2022/09/04 02:11:15;;;;;;;1.73;1.27;;;14.70;99.90;;;;;;5070011;28;20455;-49
2022/09/04 02:14:03;;;;;;;1.47;0.90;;;14.90;99.90;;;;;;5070215;28;20916;-49
2022/09/04 02:16:37;;;;;;;1.83;1.00;;;14.90;99.90;;;;;;5070158;28;20790;-50
2022/09/04 02:19:18;;;;;;;1.70;0.82;;;14.90;99.90;;;;;;5068431;28;20453;-49
2022/09/04 02:21:51;;;;;;;2.80;1.37;;;14.80;99.90;;;;;;5070117;28;20202;-49
2022/09/04 02:24:25;;;;;;;2.42;1.25;;;14.60;99.90;;;;;;5070040;28;20444;-49
2022/09/04 02:26:58;;;;;;;1.40;0.88;;;14.60;99.90;;;;;;5069903;28;20202;-50
2022/09/04 02:29:33;;;;;;;3.00;0.90;;;14.80;99.90;;;;;;5069241;28;20879;-49
2022/09/04 02:32:06;;;;;;;3.47;1.13;;;14.80;99.90;;;;;;5070120;28;21003;-49
2022/09/04 02:34:42;;;;;;;1.90;1.40;;;14.70;99.90;;;;;;5069945;28;20234;-50
2022/09/04 02:37:16;;;;;;;2.23;0.90;;;14.30;99.90;;;;;;5070044;28;20455;-50
2022/09/04 02:39:55;;;;;;;1.53;1.00;;;14.30;99.90;;;;;;5069301;28;20450;-49
2022/09/04 02:42:30;;;;;;;2.17;1.43;;;14.40;99.90;;;;;;5070091;28;20447;-48
2022/09/04 02:45:12;;;;;;;2.80;1.20;;;14.30;99.90;;;;;;5069721;28;20463;-50
2022/09/04 02:47:47;;;;;;;2.57;1.20;;;14.30;99.90;;;;;;5069963;28;20548;-49
2022/09/04 02:50:28;;;;;;;1.60;1.03;;;14.40;99.90;;;;;;5069241;28;20466;-49
2022/09/04 02:53:09;;;;;;;2.20;1.13;;;14.30;99.90;;;;;;5069836;28;20452;-49
2022/09/04 02:55:53;;;;;;;2.90;1.10;;;14.60;99.90;;;;;;5069900;28;20453;-50
2022/09/04 02:58:32;;;;;;;1.80;1.10;;;14.60;99.90;;;;;;5070154;28;20929;-51
2022/09/04 03:01:07;;;;;;;2.53;1.33;;;14.60;99.90;;;;;;5070670;28;20462;-49
2022/09/04 03:03:41;;;;;;;2.00;1.50;;;14.60;99.90;;;;;;5073936;28;20471;-51
2022/09/04 03:06:12;;;;;;;3.00;1.57;;;14.50;99.90;;;;;;5073766;28;21050;-49
2022/09/04 03:08:44;;;;;;;1.90;1.20;;;14.40;99.90;;;;;;5073614;28;20520;-51
2022/09/04 03:11:17;;;;;;;2.37;1.27;;;14.40;99.90;;;;;;5073637;28;20486;-51
2022/09/04 03:13:50;;;;;;;3.57;1.60;;;14.50;99.90;;;;;;5073433;28;20476;-49
2022/09/04 03:16:26;;;;;;;3.13;1.40;;;14.60;99.90;;;;;;5073511;28;20453;-51
2022/09/04 03:19:03;;;;;;;3.53;1.60;;;14.50;99.90;;;;;;5071188;28;20487;-49
2022/09/04 03:21:39;;;;;;;2.55;1.60;;;14.40;99.90;;;;;;5073289;28;20432;-50
2022/09/04 03:24:12;;;;;;;1.77;1.30;;;14.40;99.90;;;;;;5073292;28;20561;-51
2022/09/04 03:26:44;;;;;;;3.10;1.60;;;14.20;99.90;;;;;;5073195;28;20875;-51
2022/09/04 03:29:20;;;;;;;1.53;1.23;;;14.60;99.90;;;;;;5072575;28;20949;-49
2022/09/04 03:31:58;;;;;;;2.70;1.47;;;14.60;99.90;;;;;;5073000;28;20948;-49
2022/09/04 03:34:35;;;;;;;2.70;1.40;;;14.40;99.90;;;;;;5072891;28;20482;-50
2022/09/04 03:37:12;;;;;;;1.97;1.50;;;14.00;99.90;;;;;;5073130;28;20854;-49
2022/09/04 03:39:48;;;;;;;2.43;1.67;;;14.10;99.90;;;;;;5072197;28;20973;-50
2022/09/04 03:42:25;;;;;;;3.30;1.63;;;14.10;99.90;;;;;;5072841;28;20525;-48
2022/09/04 03:45:04;;;;;;;1.77;1.30;;;14.30;99.90;;;;;;5073100;28;20456;-50
2022/09/04 03:47:42;;;;;;;2.38;1.52;;;14.20;99.90;;;;;;5073290;28;20436;-48
2022/09/04 03:50:18;;;;;;;3.00;1.33;;;14.30;99.90;;;;;;5072285;28;20263;-49
2022/09/04 03:52:52;;;;;;;5.28;1.65;;;14.30;99.90;;;;;;5072906;28;20443;-49
2022/09/04 03:55:37;;;;;;;2.77;1.60;;;14.30;99.90;;;;;;5072756;28;20602;-48
2022/09/04 03:58:14;;;;;;;2.23;1.47;;;14.30;99.90;;;;;;5073149;28;20459;-49
2022/09/04 04:00:55;;;;;;;2.40;1.75;;;14.30;99.90;;;;;;5072386;28;20512;-49
2022/09/04 04:03:49;;;;;;;2.77;1.83;;;14.30;99.90;;;;;;5072695;28;20201;-50
2022/09/04 04:06:23;;;;;;;2.70;1.67;;;14.50;99.90;;;;;;5072668;28;20472;-51
2022/09/04 04:09:10;;;;;;;2.57;2.17;;;14.50;99.90;;;;;;5071777;28;20441;-50
2022/09/04 04:12:16;;;;;;;2.43;1.47;;;14.40;99.90;;;;;;5072547;28;20438;-50
2022/09/04 04:15:03;;;;;;;2.73;1.40;;;14.20;99.90;;;;;;5072408;28;20486;-50
2022/09/04 04:17:54;;;;;;;3.13;1.80;;;14.20;99.90;;;;;;5070921;28;20478;-48
2022/09/04 04:20:37;;;;;;;3.20;1.60;;;14.20;99.90;;;;;;5062619;28;20444;-49
2022/09/04 04:23:29;;;;;;;2.90;1.77;;;14.30;99.90;;;;;;5072257;28;20455;-50
2022/09/04 04:26:07;;;;;;;2.40;1.80;;;14.20;99.90;;;;;;5073452;28;20552;-49
2022/09/04 04:28:58;;;;;;;2.40;1.83;;;14.20;99.90;;;;;;5072199;28;20454;-49
2022/09/04 04:31:35;;;;;;;6.10;2.30;;;14.30;99.90;;;;;;5072057;28;20432;-49
2022/09/04 04:34:10;;;;;;;5.40;2.00;;;14.10;99.90;;;;;;5071995;28;20476;-49
2022/09/04 04:36:48;;;;;;;3.67;2.35;;;14.30;99.90;;;;;;5072198;28;20446;-49
2022/09/04 04:39:23;;;;;;;12.80;3.27;;;14.20;99.90;;;;;;5071222;28;20197;-50
2022/09/04 04:42:16;;;;;;;2.30;2.00;;;14.10;99.90;;;;;;5071866;28;20873;-49
2022/09/04 04:48:29;;;;;;;3.60;2.40;;;14.20;99.90;;;;;;5072446;28;20701;-49
2022/09/04 04:51:08;;;;;;;3.75;1.92;;;14.20;99.90;;;;;;5042944;28;20513;-49
2022/09/04 04:53:49;;;;;;;3.93;2.07;;;14.30;99.90;;;;;;5071799;28;20384;-49
2022/09/04 04:56:23;;;;;;;3.15;2.15;;;14.20;99.90;;;;;;5071773;28;20471;-49
2022/09/04 04:59:03;;;;;;;6.07;2.70;;;14.10;99.90;;;;;;5070758;28;20193;-49
2022/09/04 05:01:44;;;;;;;2.20;1.90;;;14.10;99.90;;;;;;5071574;28;20452;-49
2022/09/04 05:04:20;;;;;;;2.50;1.20;;;14.20;99.90;;;;;;5072008;28;20448;-49
2022/09/04 05:06:54;;;;;;;2.07;1.60;;;14.20;99.90;;;;;;5071308;28;20482;-49
2022/09/04 05:09:34;;;;;;;2.67;2.10;;;14.40;99.90;;;;;;5070797;28;20432;-49
2022/09/04 05:12:09;;;;;;;3.90;1.93;;;14.30;99.90;;;;;;5071611;28;20447;-50
2022/09/04 05:14:47;;;;;;;4.07;2.20;;;14.30;99.90;;;;;;5070898;28;20984;-49
2022/09/04 05:17:29;;;;;;;2.20;2.00;;;14.30;99.90;;;;;;5069777;28;20467;-48
2022/09/04 05:20:23;;;;;;;10.13;3.20;;;14.10;99.90;;;;;;5070833;28;20440;-49
2022/09/04 05:22:56;;;;;;;5.90;2.67;;;14.10;99.90;;;;;;5071037;28;20501;-49
2022/09/04 05:25:37;;;;;;;3.23;1.80;;;14.30;99.90;;;;;;5070414;28;20477;-52
2022/09/04 05:28:17;;;;;;;2.80;1.60;;;14.20;99.90;;;;;;5071017;28;20460;-49
2022/09/04 05:30:52;;;;;;;3.07;1.80;;;14.30;99.90;;;;;;5070193;28;20921;-49
2022/09/04 05:33:31;;;;;;;7.10;2.10;;;14.20;99.90;;;;;;5071113;28;20448;-50
2022/09/04 05:36:05;;;;;;;2.80;2.07;;;14.30;99.90;;;;;;5070475;28;20480;-50
2022/09/04 05:38:38;;;;;;;5.87;2.27;;;14.20;99.90;;;;;;5070818;28;20449;-49
2022/09/04 05:41:17;;;;;;;3.00;2.03;;;14.40;99.90;;;;;;5070435;28;20452;-49
2022/09/04 05:44:00;;;;;;;3.50;2.67;;;14.40;99.90;;;;;;5070739;28;20448;-49
2022/09/04 05:46:41;;;;;;;2.97;2.50;;;14.30;99.90;;;;;;5070668;28;20451;-48
2022/09/04 05:49:19;;;;;;;2.37;2.17;;;14.40;99.90;;;;;;5070144;28;20535;-49
2022/09/04 05:52:06;;;;;;;3.20;2.90;;;14.40;99.90;;;;;;5070570;28;20525;-49
2022/09/04 05:54:59;;;;;;;3.83;2.70;;;14.50;99.90;;;;;;5070261;28;20854;-50
2022/09/04 05:57:38;;;;;;;2.77;2.43;;;14.50;99.90;;;;;;5070579;28;20518;-49
2022/09/04 06:00:13;;;;;;;4.80;2.50;;;14.50;99.90;;;;;;5069813;28;20498;-48
2022/09/04 06:03:13;;;;;;;2.63;2.43;;;14.20;99.90;;;;;;5070580;28;20494;-49
2022/09/04 06:06:02;;;;;;;2.90;2.03;;;14.30;99.90;;;;;;5070257;28;20468;-50
2022/09/04 06:08:58;;;;;;;4.93;2.47;;;14.40;99.90;;;;;;5070253;28;20444;-49
2022/09/04 06:11:43;;;;;;;4.60;2.10;;;14.50;99.90;;;;;;5070092;28;20850;-51
2022/09/04 06:14:29;;;;;;;4.13;2.30;;;14.50;99.90;;;;;;5070165;28;20444;-49
2022/09/04 06:17:18;;;;;;;2.40;2.17;;;14.50;99.90;;;;;;5069909;28;20206;-49
2022/09/04 06:20:08;;;;;;;2.80;1.90;;;14.50;99.90;;;;;;5069474;28;20456;-49
2022/09/04 06:23:05;;;;;;;4.93;1.97;;;14.40;99.90;;;;;;5069672;28;20491;-49
2022/09/04 06:25:47;;;;;;;2.67;2.20;;;14.60;99.90;;;;;;5069935;28;20507;-49
2022/09/04 06:28:50;;;;;;;2.10;1.70;;;14.50;99.90;;;;;;5070146;28;20961;-48
2022/09/04 06:31:56;;;;;;;4.63;2.13;;;14.30;99.90;;;;;;5022425;28;20521;-50
2022/09/04 06:34:50;;;;;;;2.87;2.57;;;14.30;99.90;;;;;;5070018;28;20921;-51
2022/09/04 06:37:25;;;;;;;2.00;1.70;;;14.20;99.90;;;;;;5069965;28;20444;-49
2022/09/04 06:40:10;;;;;;;2.67;2.30;;;14.20;99.90;;;;;;5069434;28;20202;-49
2022/09/04 06:42:49;;;;;;;2.70;1.87;;;14.40;99.90;;;;;;5070352;28;20452;-49
2022/09/04 06:45:25;;;;;;;5.73;2.70;;;14.50;99.90;;;;;;5069689;28;20459;-50
2022/09/04 06:48:06;;;;;;;2.60;2.40;;;14.40;99.90;;;;;;5069907;28;20444;-49
2022/09/04 06:50:42;;;;;;;4.93;2.63;;;14.30;99.90;;;;;;5069376;28;20519;-50
2022/09/04 06:53:20;;;;;;;3.30;2.77;;;13.90;99.90;;;;;;5070122;28;20933;-49
2022/09/04 06:56:00;;;;;;;3.00;2.23;;;14.10;99.90;;;;;;5070268;28;20858;-50
2022/09/04 06:58:52;;;;;;;4.00;2.70;;;14.30;99.90;;;;;;5070073;28;20936;-49
2022/09/04 07:01:29;;;;;;;2.00;1.80;;;14.20;99.90;;;;;;5069495;28;20867;-49
2022/09/04 07:04:09;;;;;;;3.07;2.40;;;14.10;99.90;;;;;;5070057;28;20210;-49
2022/09/04 07:06:51;;;;;;;5.68;2.85;;;14.20;99.90;;;;;;5069650;28;20471;-49
2022/09/04 07:09:21;;;;;;;2.57;1.73;;;14.50;99.90;;;;;;5068766;28;20234;-50
2022/09/04 07:12:17;;;;;;;4.63;4.23;;;14.60;99.90;;;;;;5069597;28;20475;-49
2022/09/04 07:15:33;;;;;;;2.87;2.67;;;14.70;99.90;;;;;;5069330;28;20479;-50
2022/09/04 07:18:09;;;;;;;2.10;1.90;;;14.70;99.90;;;;;;5068017;28;20440;-50
2022/09/04 07:20:45;;;;;;;5.68;2.58;;;14.70;99.90;;;;;;5068676;28;20433;-49
2022/09/04 07:23:40;;;;;;;2.70;2.50;;;14.80;99.90;;;;;;5069539;28;20235;-49
2022/09/04 07:26:19;;;;;;;4.13;2.50;;;14.90;99.90;;;;;;5066746;28;20468;-51
2022/09/04 07:29:05;;;;;;;3.73;2.50;;;15.00;99.90;;;;;;5068852;28;20501;-47
2022/09/04 07:31:41;;;;;;;2.67;2.20;;;14.90;99.90;;;;;;5069201;28;20926;-49
2022/09/04 07:34:18;;;;;;;2.77;2.30;;;15.10;99.90;;;;;;5069218;28;20990;-49
2022/09/04 07:36:54;;;;;;;3.00;1.77;;;15.20;99.90;;;;;;5069157;28;21073;-50
2022/09/04 07:39:29;;;;;;;4.47;2.43;;;15.10;99.90;;;;;;5068849;28;20513;-49
2022/09/04 07:42:04;;;;;;;3.97;1.40;;;15.30;99.90;;;;;;5069178;28;20431;-50
2022/09/04 07:44:38;;;;;;;7.60;3.57;;;14.90;99.90;;;;;;5069204;28;20529;-51
2022/09/04 07:47:13;;;;;;;3.67;2.67;;;15.00;99.90;;;;;;5070570;28;20937;-49
2022/09/04 07:49:51;;;;;;;1.50;1.30;;;15.00;99.90;;;;;;5072247;28;20447;-49
2022/09/04 07:52:31;;;;;;;2.15;1.40;;;15.10;99.90;;;;;;5072894;28;20867;-49
2022/09/04 07:55:12;;;;;;;2.87;1.63;;;14.80;99.90;;;;;;5072603;28;20218;-49
2022/09/04 07:58:03;;;;;;;1.90;1.55;;;15.40;99.90;;;;;;5072763;28;20537;-49
2022/09/04 08:00:35;;;;;;;2.13;1.93;;;15.60;99.90;;;;;;5072129;28;20222;-50
2022/09/04 08:03:19;;;;;;;2.50;2.00;;;14.90;99.90;;;;;;5072718;28;20489;-49
2022/09/04 08:05:52;;;;;;;1.90;1.43;;;14.80;99.90;;;;;;5072938;28;20464;-49
2022/09/04 08:09:03;;;;;;;3.93;1.77;;;14.80;99.90;;;;;;5072434;28;20432;-50
2022/09/04 08:12:21;;;;;;;1.80;1.58;;;15.20;99.90;;;;;;5072763;28;20440;-49
2022/09/04 08:14:55;;;;;;;2.17;1.98;;;15.10;99.90;;;;;;5067385;28;20495;-50
2022/09/04 08:17:41;;;;;;;2.40;1.67;;;15.60;99.90;;;;;;5070881;28;20319;-49
2022/09/04 08:20:20;;;;;;;4.40;1.90;;;15.70;99.90;;;;;;5071585;28;20437;-49
2022/09/04 08:22:57;;;;;;;3.75;2.17;;;15.80;99.90;;;;;;5072328;28;20471;-50
2022/09/04 08:25:29;;;;;;;2.90;1.60;;;15.40;99.90;;;;;;5072171;28;20279;-48
2022/09/04 08:28:26;;;;;;;1.70;1.47;;;15.50;99.90;;;;;;5072338;28;20480;-49
2022/09/04 08:31:03;;;;;;;3.20;1.90;;;15.60;99.90;;;;;;5071825;28;20441;-49
2022/09/04 08:33:55;;;;;;;2.20;1.60;;;15.30;99.90;;;;;;5072046;28;20491;-50
2022/09/04 08:36:29;;;;;;;3.90;1.70;;;15.70;99.90;;;;;;5030911;28;20230;-49
2022/09/04 08:39:07;;;;;;;2.13;1.50;;;15.90;99.90;;;;;;5071159;28;20489;-50
2022/09/04 08:42:25;;;;;;;2.40;1.90;;;15.90;99.90;;;;;;5072211;28;20867;-50
2022/09/04 08:45:34;;;;;;;1.93;1.73;;;15.90;99.90;;;;;;5038127;28;20464;-50
2022/09/04 08:48:33;;;;;;;2.60;2.10;;;15.90;99.90;;;;;;5071958;28;20432;-50
2022/09/04 08:51:40;;;;;;;3.90;1.50;;;16.40;99.90;;;;;;5071191;28;20502;-50
2022/09/04 08:54:39;;;;;;;3.60;2.00;;;16.40;99.90;;;;;;5071870;28;20444;-47
2022/09/04 08:57:37;;;;;;;2.40;1.40;;;16.30;99.90;;;;;;5071452;28;20464;-47
2022/09/04 09:00:11;;;;;;;2.00;1.80;;;16.30;99.90;;;;;;5069941;28;20872;-48
2022/09/04 09:03:13;;;;;;;3.13;1.83;;;16.30;99.90;;;;;;5071541;28;20986;-48
2022/09/04 09:06:34;;;;;;;3.67;1.80;;;16.50;99.90;;;;;;5071484;28;20538;-48
2022/09/04 09:09:28;;;;;;;3.50;1.87;;;17.00;99.90;;;;;;5070757;28;20474;-47
2022/09/04 09:12:31;;;;;;;4.30;1.90;;;17.10;99.90;;;;;;5071537;28;20510;-48
2022/09/04 09:15:38;;;;;;;2.77;1.90;;;17.40;99.90;;;;;;5071017;28;20214;-49
2022/09/04 09:18:34;;;;;;;2.50;2.20;;;17.70;99.90;;;;;;5069982;28;20463;-49
2022/09/04 09:21:07;;;;;;;3.20;1.65;;;17.70;99.90;;;;;;5070416;28;20433;-48
2022/09/04 09:23:59;;;;;;;2.93;2.20;;;18.10;99.90;;;;;;5071152;28;20289;-48
2022/09/04 09:26:28;;;;;;;2.77;1.60;;;18.00;99.90;;;;;;5070964;28;20988;-48
2022/09/04 09:29:42;;;;;;;2.83;1.83;;;17.90;99.90;;;;;;5070503;28;20432;-48
2022/09/04 09:32:54;;;;;;;2.78;2.28;;;18.00;99.90;;;;;;5071165;28;20444;-49
2022/09/04 09:36:03;;;;;;;2.03;1.53;;;17.60;99.90;;;;;;5070935;28;20222;-49
2022/09/04 09:39:04;;;;;;;5.37;2.43;;;17.80;99.90;;;;;;5070729;28;20440;-49
2022/09/04 09:42:22;;;;;;;9.13;3.67;;;17.90;99.90;;;;;;5066256;28;20445;-49
2022/09/04 09:45:25;;;;;;;2.57;2.07;;;18.10;99.90;;;;;;4988977;28;21033;-48
2022/09/04 09:48:21;;;;;;;1.90;1.53;;;18.30;99.90;;;;;;5039377;28;20937;-48
2022/09/04 09:51:48;;;;;;;2.70;1.90;;;18.50;99.90;;;;;;5070130;28;20440;-49
2022/09/04 09:54:54;;;;;;;2.97;1.98;;;18.40;99.90;;;;;;4988624;28;20873;-49
2022/09/04 09:57:54;;;;;;;4.60;1.73;;;18.50;99.90;;;;;;5070384;28;21193;-48
2022/09/04 10:00:24;;;;;;;17.93;3.33;;;18.70;99.90;;;;;;5066356;28;20513;-49
2022/09/04 10:03:32;;;;;;;2.50;2.17;;;19.00;99.90;;;;;;5070105;28;20429;-48
2022/09/04 10:06:46;;;;;;;9.67;2.60;;;19.00;99.90;;;;;;5070261;28;20467;-49
2022/09/04 10:09:50;;;;;;;3.28;1.83;;;19.20;99.90;;;;;;5068910;28;20507;-49
2022/09/04 10:12:49;;;;;;;3.77;2.23;;;19.00;99.90;;;;;;5070575;28;20202;-48
2022/09/04 10:16:00;;;;;;;2.30;1.60;;;18.60;99.90;;;;;;5069929;28;20513;-49
2022/09/04 10:19:07;;;;;;;2.73;2.00;;;18.70;99.90;;;;;;5068711;28;20235;-50
2022/09/04 10:22:13;;;;;;;6.20;2.83;;;18.90;99.90;;;;;;5070392;28;20451;-50
2022/09/04 10:25:09;;;;;;;2.30;1.83;;;19.30;99.90;;;;;;5070608;28;20995;-48
2022/09/04 10:28:18;;;;;;;7.30;2.27;;;19.40;99.90;;;;;;5070124;28;20683;-50
2022/09/04 10:31:12;;;;;;;6.00;2.10;;;19.40;99.90;;;;;;5040577;28;20493;-48
2022/09/04 10:33:55;;;;;;;2.77;1.57;;;19.60;99.90;;;;;;5053080;28;20205;-49
2022/09/04 10:36:35;;;;;;;4.30;2.13;;;19.20;99.90;;;;;;5069785;28;20736;-49
2022/09/04 10:42:26;;;;;;;2.40;1.63;;;19.50;99.90;;;;;;5069803;28;20423;-50
2022/09/04 10:45:19;;;;;;;2.10;1.90;;;19.30;99.90;;;;;;5069754;28;20465;-48
2022/09/04 10:48:24;;;;;;;4.67;2.67;;;19.30;99.90;;;;;;5069858;28;20457;-49
2022/09/04 10:51:24;;;;;;;2.67;1.83;;;19.40;99.90;;;;;;5068893;28;20436;-50
2022/09/04 10:54:25;;;;;;;3.43;2.00;;;19.40;99.90;;;;;;5069879;28;20435;-49
2022/09/04 10:57:08;;;;;;;2.53;2.13;;;19.60;99.90;;;;;;5049128;28;21082;-50
2022/09/04 10:59:53;;;;;;;4.40;2.30;;;20.00;99.90;;;;;;5069551;28;20211;-48
2022/09/04 11:03:07;;;;;;;3.60;1.57;;;20.00;99.90;;;;;;5069563;28;20217;-50
2022/09/04 11:05:50;;;;;;;3.72;2.30;;;20.10;99.90;;;;;;5032857;28;20454;-48
2022/09/04 11:08:34;;;;;;;2.60;1.77;;;20.20;99.90;;;;;;5069646;28;20667;-49
2022/09/04 11:11:27;;;;;;;3.73;2.43;;;20.30;99.90;;;;;;5069065;28;20451;-49
2022/09/04 11:14:07;;;;;;;2.33;1.88;;;20.50;99.90;;;;;;5069545;28;20912;-48
2022/09/04 11:17:07;;;;;;;3.27;1.50;;;20.30;99.90;;;;;;5069705;28;20236;-49
2022/09/04 11:20:00;;;;;;;2.50;2.00;;;20.50;99.90;;;;;;5069028;28;20445;-48
2022/09/04 11:23:03;;;;;;;4.10;1.70;;;20.60;99.90;;;;;;5071146;28;20551;-48
2022/09/04 11:26:25;;;;;;;2.30;1.70;;;20.30;99.90;;;;;;5071026;28;20225;-48
2022/09/04 11:29:23;;;;;;;1.63;1.17;;;20.10;99.90;;;;;;5072660;28;20567;-48
2022/09/04 11:32:18;;;;;;;2.20;1.77;;;20.10;99.90;;;;;;5073249;28;20206;-48
2022/09/04 11:35:13;;;;;;;3.63;2.10;;;20.00;99.90;;;;;;5073122;28;21002;-49
2022/09/04 11:38:07;;;;;;;7.40;2.80;;;20.10;99.90;;;;;;5036423;28;20510;-51
2022/09/04 11:41:27;;;;;;;2.30;2.10;;;20.40;99.90;;;;;;5072313;28;20494;-48
2022/09/04 11:44:30;;;;;;;2.43;1.57;;;20.60;99.90;;;;;;4991084;28;20458;-49
2022/09/04 11:47:31;;;;;;;2.83;1.50;;;20.60;99.90;;;;;;5073051;28;20473;-49
2022/09/04 11:50:15;;;;;;;2.27;1.37;;;20.60;99.90;;;;;;5072272;28;20209;-48
2022/09/04 11:53:26;;;;;;;2.83;1.60;;;20.50;99.90;;;;;;5072744;28;20535;-48
2022/09/04 11:56:08;;;;;;;1.90;1.67;;;20.50;99.90;;;;;;4990884;28;20555;-49
2022/09/04 11:59:04;;;;;;;1.90;1.50;;;20.70;99.90;;;;;;5069770;28;20476;-50
2022/09/04 12:01:59;;;;;;;3.13;1.90;;;20.80;99.90;;;;;;5072839;28;20202;-49
2022/09/04 12:04:53;;;;;;;8.53;3.53;;;20.90;99.90;;;;;;5072496;28;20443;-49
2022/09/04 12:07:39;;;;;;;3.07;1.70;;;21.00;99.90;;;;;;5072852;28;20455;-48
2022/09/04 12:10:26;;;;;;;2.77;2.07;;;21.10;99.90;;;;;;5071950;28;20478;-49
2022/09/04 12:13:42;;;;;;;3.90;2.30;;;21.40;99.90;;;;;;5072477;28;20435;-49
2022/09/04 12:16:37;;;;;;;3.10;1.70;;;21.30;99.90;;;;;;4988751;28;20941;-49
2022/09/04 12:19:45;;;;;;;2.40;1.57;;;21.60;99.90;;;;;;4988953;28;20460;-49
2022/09/04 12:22:43;;;;;;;2.50;1.63;;;21.50;99.90;;;;;;5010230;28;20447;-48
2022/09/04 12:25:48;;;;;;;2.10;1.63;;;21.50;99.90;;;;;;5070699;28;20487;-48
2022/09/04 12:28:49;;;;;;;1.80;1.40;;;21.50;99.90;;;;;;5052172;28;20220;-48
2022/09/04 12:31:54;;;;;;;2.20;1.87;;;21.60;99.90;;;;;;5072239;28;20433;-49
2022/09/04 12:34:56;;;;;;;1.70;1.20;;;21.60;99.90;;;;;;5051478;28;20451;-48
2022/09/04 12:37:42;;;;;;;4.77;2.07;;;21.90;99.90;;;;;;5051538;28;20984;-49
2022/09/04 12:40:30;;;;;;;2.70;2.13;;;22.00;99.90;;;;;;5071365;28;20448;-48
2022/09/04 12:43:12;;;;;;;2.23;2.03;;;22.00;99.90;;;;;;5071827;28;20433;-48
2022/09/04 12:45:48;;;;;;;3.73;1.90;;;22.20;99.90;;;;;;5071689;28;20968;-48
2022/09/04 12:48:23;;;;;;;2.60;2.17;;;22.10;99.90;;;;;;5071858;28;20501;-47
2022/09/04 12:50:57;;;;;;;1.90;1.40;;;22.20;99.90;;;;;;5071093;28;20478;-49
2022/09/04 12:53:44;;;;;;;2.60;1.73;;;22.20;99.90;;;;;;5071841;28;20445;-48
2022/09/04 12:56:16;;;;;;;2.50;1.60;;;22.40;99.90;;;;;;5071527;28;20486;-49
2022/09/04 12:58:58;;;;;;;1.90;1.60;;;22.30;99.90;;;;;;5071675;28;20443;-48
2022/09/04 13:01:38;;;;;;;2.92;2.63;;;22.30;99.90;;;;;;5071775;28;20444;-50
2022/09/04 13:04:14;;;;;;;2.92;1.65;;;22.50;99.90;;;;;;5071592;28;20205;-49
2022/09/04 13:06:49;;;;;;;4.13;1.97;;;22.50;99.90;;;;;;5071590;28;20201;-49
2022/09/04 13:09:22;;;;;;;2.73;2.13;;;22.40;99.90;;;;;;5071254;28;20448;-50
2022/09/04 13:12:03;;;;;;;2.60;1.77;;;22.20;99.90;;;;;;5071470;28;20456;-49
2022/09/04 13:15:01;;;;;;;1.90;1.60;;;22.00;99.90;;;;;;5071247;28;20497;-49
2022/09/04 13:17:42;;;;;;;4.10;2.50;;;22.00;99.90;;;;;;5054244;28;20229;-49
2022/09/04 13:20:19;;;;;;;2.63;2.27;;;21.90;99.90;;;;;;5070447;28;20448;-50
2022/09/04 13:23:03;;;;;;;2.97;2.67;;;22.00;99.90;;;;;;5071119;28;20468;-49
2022/09/04 13:25:41;;;;;;;9.30;5.53;;;21.90;99.90;;;;;;5070880;28;20469;-49
2022/09/04 13:28:18;;;;;;;2.63;1.90;;;21.90;99.90;;;;;;5071002;28;20433;-49
2022/09/04 13:30:52;;;;;;;2.40;1.67;;;21.80;99.90;;;;;;5070342;28;20501;-50
2022/09/04 13:33:39;;;;;;;2.17;1.80;;;21.60;99.90;;;;;;5071358;28;20509;-50
2022/09/04 13:36:23;;;;;;;4.40;2.73;;;21.50;99.90;;;;;;5070828;28;20559;-49
2022/09/04 13:39:17;;;;;;;3.42;2.28;;;21.50;99.90;;;;;;5070180;28;20444;-50
2022/09/04 13:42:22;;;;;;;2.70;1.90;;;21.40;99.90;;;;;;5034054;28;20293;-49
2022/09/04 13:45:05;;;;;;;2.37;2.17;;;21.60;99.90;;;;;;5036253;28;20740;-50
2022/09/04 13:47:42;;;;;;;2.90;2.40;;;21.40;99.90;;;;;;5071083;28;20448;-49
2022/09/04 13:50:19;;;;;;;2.15;1.95;;;21.50;99.90;;;;;;5070541;28;20443;-50
2022/09/04 13:52:53;;;;;;;3.88;2.10;;;21.20;99.90;;;;;;5070884;28;20201;-50
2022/09/04 13:55:23;;;;;;;2.60;1.93;;;21.20;99.90;;;;;;5070555;28;20271;-50
2022/09/04 13:57:57;;;;;;;2.43;2.00;;;21.00;99.90;;;;;;5070306;28;20892;-49
2022/09/04 14:00:25;;;;;;;1.93;1.73;;;21.00;99.90;;;;;;5069969;28;20445;-49
2022/09/04 14:02:57;;;;;;;2.50;1.73;;;21.10;99.90;;;;;;5070327;28;20440;-51
2022/09/04 14:05:28;;;;;;;2.50;1.57;;;21.00;99.90;;;;;;5070746;28;20530;-49
2022/09/04 14:08:01;;;;;;;2.20;1.80;;;20.80;99.90;;;;;;5070335;28;20523;-50
2022/09/04 14:10:45;;;;;;;2.20;1.87;;;20.70;99.90;;;;;;5069788;28;20453;-50
2022/09/04 14:13:25;;;;;;;2.47;1.30;;;20.70;99.90;;;;;;5070408;28;21024;-49
2022/09/04 14:16:05;;;;;;;2.30;1.73;;;21.00;99.90;;;;;;5070160;28;20953;-50
2022/09/04 14:18:54;;;;;;;2.33;1.70;;;21.20;99.90;;;;;;5069581;28;20476;-50
2022/09/04 14:21:37;;;;;;;2.70;2.40;;;21.30;99.90;;;;;;5067527;28;20448;-50
2022/09/04 14:24:14;;;;;;;3.03;2.27;;;21.20;99.90;;;;;;5070849;28;20456;-50